Time;durP1;ratioP1;P1;durP2;ratioP2;P2;SDS_P1;SDS_P2;PMS_P1;PMS_P2;Temp;Humidity;BMP_temperature;BMP_pressure;BME280_temperature;BME280_humidity;BME280_pressure;Samples;Min_cycle;Max_cycle;Signal;HPM_P1;HPM_P2
2023/05/24 00:02:25;;;;;;;4.90;3.17;;;;;;;24.63;52.50;99924.28;5067081;28;20534;-65
2023/05/24 00:04:54;;;;;;;5.35;2.53;;;;;;;24.63;52.49;99923.44;5073777;28;20136;-65
2023/05/24 00:07:22;;;;;;;4.82;2.80;;;;;;;24.62;52.26;99924.50;5073464;28;20086;-64
2023/05/24 00:09:50;;;;;;;4.50;2.88;;;;;;;24.61;52.26;99925.50;5073048;28;20048;-65
2023/05/24 00:12:18;;;;;;;4.28;2.90;;;;;;;24.60;52.49;99923.81;5073206;28;20527;-64
2023/05/24 00:14:46;;;;;;;4.50;2.97;;;;;;;24.58;52.54;99924.00;5073560;28;20044;-64
2023/05/24 00:17:15;;;;;;;4.18;2.80;;;;;;;24.58;52.60;99925.88;5073627;28;20045;-64
2023/05/24 00:19:45;;;;;;;4.55;2.85;;;;;;;24.57;52.31;99916.03;5073299;28;20458;-65
2023/05/24 00:22:13;;;;;;;3.88;2.60;;;;;;;24.56;52.46;99915.19;5073523;28;20564;-65
2023/05/24 00:24:42;;;;;;;4.90;2.83;;;;;;;24.54;52.74;99909.91;5073373;28;20489;-64
2023/05/24 00:27:10;;;;;;;3.95;2.80;;;;;;;24.54;52.62;99909.91;5055026;28;20057;-65
2023/05/24 00:29:38;;;;;;;4.25;2.88;;;;;;;24.52;52.69;99911.16;5053298;28;20135;-65
2023/05/24 00:32:07;;;;;;;4.55;2.80;;;;;;;24.51;52.56;99907.59;5053134;28;20045;-64
2023/05/24 00:34:35;;;;;;;4.40;2.92;;;;;;;24.51;52.61;99913.03;5053037;28;20045;-65
2023/05/24 00:37:06;;;;;;;5.03;2.63;;;;;;;24.50;52.80;99908.59;5053336;28;20067;-65
2023/05/24 00:39:34;;;;;;;4.47;2.92;;;;;;;24.49;52.65;99912.34;5053187;28;20398;-64
2023/05/24 00:42:02;;;;;;;3.65;2.67;;;;;;;24.49;52.85;99906.91;5053091;28;20056;-65
2023/05/24 00:44:31;;;;;;;4.38;3.03;;;;;;;24.47;52.98;99906.25;5052992;28;20055;-65
2023/05/24 00:47:00;;;;;;;3.60;2.55;;;;;;;24.46;52.79;99901.00;5052769;28;20071;-64
2023/05/24 00:49:29;;;;;;;4.28;2.75;;;;;;;24.45;52.92;99900.16;5053012;28;20045;-64
2023/05/24 00:51:57;;;;;;;3.83;2.88;;;;;;;24.45;53.03;99905.59;5052758;28;20127;-65
2023/05/24 00:54:28;;;;;;;4.53;3.13;;;;;;;24.43;53.10;99899.50;5052740;28;20045;-64
2023/05/24 00:56:57;;;;;;;3.70;2.70;;;;;;;24.42;52.95;99906.00;5052679;28;20450;-65
2023/05/24 00:59:26;;;;;;;5.07;2.80;;;;;;;24.42;53.05;99903.28;5052448;28;20052;-64
2023/05/24 01:01:54;;;;;;;4.25;2.53;;;;;;;24.40;53.03;99902.59;5052744;28;20052;-65
2023/05/24 01:04:23;;;;;;;3.90;2.67;;;;;;;24.40;53.06;99905.31;5052616;28;20041;-65
2023/05/24 01:07:04;;;;;;;3.92;2.70;;;;;;;24.39;53.48;99911.81;5052411;28;20049;-65
2023/05/24 01:09:46;;;;;;;5.78;3.00;;;;;;;24.38;53.26;99915.56;5052270;28;20131;-65
2023/05/24 01:12:24;;;;;;;4.20;2.77;;;;;;;24.36;53.40;99909.47;5052109;28;20053;-65
2023/05/24 01:15:09;;;;;;;4.32;2.80;;;;;;;24.36;53.33;99901.28;5052368;28;20669;-65
2023/05/24 01:17:47;;;;;;;4.15;2.90;;;;;;;24.35;53.24;99899.59;5052240;28;20048;-65
2023/05/24 01:20:18;;;;;;;4.28;2.80;;;;;;;24.34;53.18;99897.91;5052345;28;20140;-65
2023/05/24 01:23:04;;;;;;;4.85;3.00;;;;;;;24.33;53.22;99909.88;5052237;28;20068;-65
2023/05/24 01:25:48;;;;;;;4.03;2.90;;;;;;;24.32;53.37;99905.44;5052305;28;20094;-65
2023/05/24 01:28:18;;;;;;;3.85;2.70;;;;;;;24.31;53.20;99903.72;5051999;28;20091;-65
2023/05/24 01:30:47;;;;;;;4.15;2.92;;;;;;;24.31;53.36;99898.28;5052141;28;20137;-65
2023/05/24 01:33:15;;;;;;;6.75;3.20;;;;;;;24.30;53.18;99899.28;5051898;28;20053;-65
2023/05/24 01:35:44;;;;;;;4.10;2.90;;;;;;;24.28;53.19;99899.47;5052104;28;20040;-65
2023/05/24 01:38:13;;;;;;;4.07;2.80;;;;;;;24.27;53.39;99900.50;5051867;28;20138;-65
2023/05/24 01:40:41;;;;;;;5.13;2.85;;;;;;;24.28;53.46;99894.03;5051901;28;20049;-65
2023/05/24 01:43:16;;;;;;;4.07;2.92;;;;;;;24.27;53.58;99894.22;5051866;28;20075;-65
2023/05/24 01:45:54;;;;;;;4.32;2.92;;;;;;;24.26;53.30;99884.34;5051776;28;20135;-65
2023/05/24 01:48:31;;;;;;;4.40;3.03;;;;;;;24.25;53.49;99888.97;5051749;28;20049;-65
2023/05/24 01:51:01;;;;;;;5.22;2.88;;;;;;;24.25;53.59;99883.50;5051605;28;20516;-65
2023/05/24 01:53:34;;;;;;;4.25;2.78;;;;;;;24.24;53.56;99891.88;5051563;28;20118;-65
2023/05/24 01:56:05;;;;;;;3.80;2.60;;;;;;;24.23;53.56;99895.66;5051550;28;20049;-65
2023/05/24 01:58:36;;;;;;;3.63;2.90;;;;;;;24.22;53.45;99889.34;5051778;28;20055;-65
2023/05/24 02:01:06;;;;;;;4.75;2.97;;;;;;;24.22;53.53;99885.75;5051777;28;20080;-65
2023/05/24 02:03:36;;;;;;;4.38;2.72;;;;;;;24.20;53.65;99880.50;5051586;28;20048;-65
2023/05/24 02:06:05;;;;;;;4.70;2.78;;;;;;;24.20;53.55;99882.38;5051440;28;20147;-65
2023/05/24 02:08:33;;;;;;;4.22;2.75;;;;;;;24.18;53.67;99887.19;5051262;28;20132;-65
2023/05/24 02:11:01;;;;;;;4.25;2.90;;;;;;;24.17;53.53;99886.34;5051546;28;20102;-65
2023/05/24 02:13:30;;;;;;;4.00;2.80;;;;;;;24.18;53.69;99889.91;5051107;28;20055;-65
2023/05/24 02:15:58;;;;;;;4.05;2.70;;;;;;;24.17;53.75;99896.38;5051420;28;20060;-65
2023/05/24 02:18:33;;;;;;;4.15;2.65;;;;;;;24.14;53.67;99892.16;5051284;28;20045;-65
2023/05/24 02:21:02;;;;;;;4.30;2.63;;;;;;;24.14;53.85;99892.16;5051215;28;20047;-65
2023/05/24 02:23:32;;;;;;;4.97;2.88;;;;;;;24.15;53.79;99893.00;5051427;28;20047;-65
2023/05/24 02:26:01;;;;;;;3.67;2.70;;;;;;;24.13;53.73;99889.63;5051610;28;20056;-65
2023/05/24 02:28:31;;;;;;;5.38;2.80;;;;;;;24.12;53.64;99894.22;5051429;28;20076;-65
2023/05/24 02:30:59;;;;;;;4.30;2.42;;;;;;;24.11;53.78;99891.69;5052437;28;20128;-66
2023/05/24 02:33:29;;;;;;;3.75;2.80;;;;;;;24.11;53.69;99887.06;5057759;28;20055;-65
2023/05/24 02:35:57;;;;;;;4.07;3.00;;;;;;;24.10;53.86;99885.38;5057753;28;20045;-65
2023/05/24 02:38:26;;;;;;;4.28;2.80;;;;;;;24.10;53.69;99887.28;5058001;28;20051;-65
2023/05/24 02:40:54;;;;;;;3.60;2.60;;;;;;;24.09;54.02;99882.84;5057818;28;20147;-65
2023/05/24 02:43:22;;;;;;;4.95;2.90;;;;;;;24.08;53.71;99881.16;5057848;28;20412;-65
2023/05/24 02:45:50;;;;;;;4.95;2.90;;;;;;;24.07;53.76;99879.47;5057778;28;20083;-65
2023/05/24 02:48:19;;;;;;;4.03;2.70;;;;;;;24.06;53.69;99880.53;5057641;28;20044;-65
2023/05/24 02:50:48;;;;;;;4.05;2.60;;;;;;;24.06;53.78;99875.91;5057698;28;20139;-65
2023/05/24 02:53:16;;;;;;;4.15;2.55;;;;;;;24.04;53.96;99879.88;5057759;28;20052;-65
2023/05/24 02:55:45;;;;;;;3.95;2.97;;;;;;;24.03;53.85;99889.03;5057768;28;20494;-65
2023/05/24 02:58:16;;;;;;;4.70;2.95;;;;;;;24.03;53.71;99883.59;5057787;28;20568;-65
2023/05/24 03:00:44;;;;;;;4.22;2.83;;;;;;;24.01;53.78;99885.66;5057655;28;20095;-65
2023/05/24 03:03:15;;;;;;;4.63;3.05;;;;;;;24.01;53.84;99885.66;5057790;28;20051;-65
2023/05/24 03:05:44;;;;;;;3.95;2.70;;;;;;;23.99;53.86;99886.72;5057641;28;20053;-65
2023/05/24 03:08:13;;;;;;;3.97;2.55;;;;;;;23.98;53.61;99890.47;5057616;28;20056;-65
2023/05/24 03:10:41;;;;;;;4.35;3.10;;;;;;;23.98;53.98;99897.81;5057444;28;20052;-65
2023/05/24 03:13:10;;;;;;;3.72;2.70;;;;;;;23.97;54.06;99894.22;5057176;28;20140;-65
2023/05/24 03:15:38;;;;;;;4.75;2.85;;;;;;;23.95;53.85;99904.47;5057328;28;20045;-65
2023/05/24 03:18:06;;;;;;;4.22;2.90;;;;;;;23.96;53.94;99897.16;5057415;28;20497;-65
2023/05/24 03:20:36;;;;;;;3.95;2.85;;;;;;;23.94;53.90;99886.44;5057627;28;20049;-65
2023/05/24 03:23:04;;;;;;;4.93;3.05;;;;;;;23.95;53.77;99888.13;5057562;28;20041;-65
2023/05/24 03:25:34;;;;;;;4.05;2.88;;;;;;;23.93;54.06;99886.59;5057380;28;20508;-65
2023/05/24 03:28:02;;;;;;;4.65;3.22;;;;;;;23.92;53.82;99882.19;5057229;28;20079;-65
2023/05/24 03:30:30;;;;;;;4.25;2.83;;;;;;;23.91;53.95;99894.13;5057594;28;20056;-65
2023/05/24 03:32:59;;;;;;;5.32;3.08;;;;;;;23.91;53.93;99883.22;5057446;28;20414;-65
2023/05/24 03:35:27;;;;;;;4.57;2.92;;;;;;;23.90;54.01;99890.56;5057410;28;20045;-65
2023/05/24 03:37:55;;;;;;;4.38;2.80;;;;;;;23.89;54.05;99888.03;5057353;28;20080;-65
2023/05/24 03:40:24;;;;;;;4.53;2.78;;;;;;;23.88;53.87;99892.63;5057233;28;20068;-65
2023/05/24 03:42:54;;;;;;;6.55;3.00;;;;;;;23.88;54.11;99889.91;5056269;28;20085;-65
2023/05/24 03:45:22;;;;;;;3.95;2.90;;;;;;;23.88;54.04;99897.22;5070736;28;20404;-65
2023/05/24 03:48:05;;;;;;;5.47;2.70;;;;;;;23.86;53.96;99905.59;5054187;28;20045;-65
2023/05/24 03:50:33;;;;;;;3.88;2.85;;;;;;;23.86;53.96;99904.75;5054131;28;20051;-65
2023/05/24 03:53:01;;;;;;;4.53;3.08;;;;;;;23.85;54.18;99901.19;5053772;28;20053;-65
2023/05/24 03:55:29;;;;;;;4.15;2.85;;;;;;;23.84;54.39;99902.22;5069963;28;20066;-64
2023/05/24 03:57:59;;;;;;;6.75;3.30;;;;;;;23.84;54.12;99906.81;5074032;28;20094;-64
2023/05/24 04:00:27;;;;;;;5.95;3.28;;;;;;;23.83;54.12;99911.38;5073735;28;20546;-65
2023/05/24 04:02:56;;;;;;;4.45;2.90;;;;;;;23.83;54.26;99914.13;5073767;28;20053;-64
2023/05/24 04:05:25;;;;;;;4.65;3.00;;;;;;;23.82;54.17;99909.69;5073738;28;20054;-64
2023/05/24 04:07:54;;;;;;;4.45;2.85;;;;;;;23.80;54.04;99917.22;5073607;28;20040;-64
2023/05/24 04:10:22;;;;;;;5.10;2.97;;;;;;;23.81;54.28;99926.22;5073567;28;20485;-64
2023/05/24 04:12:51;;;;;;;4.55;3.00;;;;;;;23.80;54.10;99919.09;5058780;28;20132;-64
2023/05/24 04:15:21;;;;;;;4.20;3.20;;;;;;;23.78;54.03;99924.72;5053566;28;20049;-64
2023/05/24 04:17:53;;;;;;;5.25;3.13;;;;;;;23.79;54.16;99925.59;5062320;28;20045;-64
2023/05/24 04:20:24;;;;;;;4.45;3.08;;;;;;;23.79;54.22;99928.31;5053713;28;20099;-65
2023/05/24 04:22:52;;;;;;;4.80;3.20;;;;;;;23.77;54.05;99925.78;5053640;28;20052;-64
2023/05/24 04:25:26;;;;;;;4.13;3.05;;;;;;;23.77;54.22;99938.53;5053214;28;20053;-64
2023/05/24 04:27:55;;;;;;;4.78;3.13;;;;;;;23.75;54.21;99927.84;5053252;28;20041;-64
2023/05/24 04:30:24;;;;;;;5.10;3.38;;;;;;;23.75;54.14;99927.84;5053134;28;20081;-66
2023/05/24 04:32:53;;;;;;;5.45;3.25;;;;;;;23.75;54.21;99936.00;5052995;28;20053;-64
2023/05/24 04:35:21;;;;;;;5.03;3.50;;;;;;;23.72;54.25;99936.34;5053308;28;20137;-64
2023/05/24 04:37:49;;;;;;;5.28;3.10;;;;;;;23.72;54.20;99941.81;5053058;28;20053;-64
2023/05/24 04:40:19;;;;;;;5.97;3.50;;;;;;;23.72;54.41;99939.06;5053039;28;20587;-66
2023/05/24 04:42:47;;;;;;;4.72;3.30;;;;;;;23.70;54.28;99944.72;5052857;28;20049;-65
2023/05/24 04:45:15;;;;;;;5.53;3.35;;;;;;;23.70;54.30;99938.44;5052667;28;20048;-65
2023/05/24 04:47:45;;;;;;;3.90;3.00;;;;;;;23.70;54.31;99942.00;5052789;28;20383;-65
2023/05/24 04:50:13;;;;;;;5.78;3.35;;;;;;;23.70;54.54;99943.88;5052888;28;20128;-65
2023/05/24 04:52:42;;;;;;;4.63;3.20;;;;;;;23.69;54.48;99936.75;5052916;28;20060;-65
2023/05/24 04:55:10;;;;;;;4.95;3.50;;;;;;;23.69;54.42;99936.75;5052254;28;20103;-65
2023/05/24 04:57:38;;;;;;;5.10;3.40;;;;;;;23.68;54.47;99943.22;5052705;28;20056;-65
2023/05/24 05:00:09;;;;;;;4.05;2.92;;;;;;;23.67;54.44;99942.38;5052500;28;20048;-65
2023/05/24 05:02:37;;;;;;;4.30;3.25;;;;;;;23.67;54.41;99942.38;5052766;28;20127;-65
2023/05/24 05:05:08;;;;;;;5.07;3.50;;;;;;;23.67;54.49;99945.09;5052466;28;20041;-65
2023/05/24 05:07:37;;;;;;;4.38;3.00;;;;;;;23.68;54.51;99948.66;5052572;28;20124;-65
2023/05/24 05:10:06;;;;;;;4.57;3.30;;;;;;;23.67;54.56;99950.53;5052558;28;20131;-68
2023/05/24 05:12:34;;;;;;;4.95;3.17;;;;;;;23.67;54.59;99952.41;5052344;28;20048;-68
2023/05/24 05:15:03;;;;;;;6.65;3.58;;;;;;;23.68;54.66;99962.28;5052069;28;20501;-66
2023/05/24 05:17:31;;;;;;;4.53;3.10;;;;;;;23.67;54.66;99955.13;5052194;28;20048;-67
2023/05/24 05:19:59;;;;;;;4.70;3.30;;;;;;;23.68;54.65;99962.28;5051731;28;20405;-68
2023/05/24 05:22:29;;;;;;;5.10;3.70;;;;;;;23.68;54.51;99965.00;5051716;28;20049;-68
2023/05/24 05:24:58;;;;;;;4.85;3.17;;;;;;;23.67;54.72;99958.72;5051726;28;20465;-68
2023/05/24 05:27:26;;;;;;;5.57;3.60;;;;;;;23.67;54.73;99966.03;5052101;28;20080;-68
2023/05/24 05:29:54;;;;;;;4.53;3.33;;;;;;;23.67;54.82;99966.03;5052196;28;20048;-69
2023/05/24 05:32:22;;;;;;;5.38;3.42;;;;;;;23.66;55.10;99961.63;5052063;28;20040;-68
2023/05/24 05:34:51;;;;;;;6.63;3.47;;;;;;;23.66;54.94;99961.63;5051864;28;20413;-69
2023/05/24 05:37:19;;;;;;;4.88;3.53;;;;;;;23.66;54.83;99958.91;5051565;28;20049;-67
2023/05/24 05:39:49;;;;;;;5.75;3.83;;;;;;;23.65;55.03;99968.09;5052205;28;20053;-68
2023/05/24 05:42:17;;;;;;;4.80;3.47;;;;;;;23.65;54.98;99962.66;5051660;28;20508;-68
2023/05/24 05:44:45;;;;;;;5.03;3.72;;;;;;;23.65;55.06;99965.38;5051788;28;20087;-68
2023/05/24 05:47:13;;;;;;;4.65;3.50;;;;;;;23.65;55.16;99968.09;5051689;28;20405;-68
2023/05/24 05:49:41;;;;;;;5.50;3.90;;;;;;;23.65;55.17;99968.09;5051376;28;20045;-67
2023/05/24 05:52:10;;;;;;;4.43;3.47;;;;;;;23.65;55.02;99968.94;5051286;28;20045;-68
2023/05/24 05:54:38;;;;;;;6.05;3.47;;;;;;;23.66;55.12;99964.34;5050697;28;20048;-63
2023/05/24 05:57:10;;;;;;;5.00;3.78;;;;;;;23.66;54.83;99969.78;5069476;28;20051;-67
2023/05/24 05:59:38;;;;;;;5.40;3.58;;;;;;;23.66;55.27;99964.34;5071924;28;20075;-67
2023/05/24 06:02:06;;;;;;;5.53;3.88;;;;;;;23.66;55.33;99967.06;5071035;28;20486;-61
2023/05/24 06:05:17;;;;;;;5.93;3.95;;;;;;;23.67;55.38;99966.03;5071590;28;20058;-68
2023/05/24 06:12:46;;;;;;;5.80;3.72;;;;;;;23.65;55.68;99979.00;5068909;28;20044;-65
2023/05/24 06:20:12;;;;;;;5.45;3.55;;;;;;;23.67;55.42;99993.25;5002882;28;20054;-64
2023/05/24 06:23:56;;;;;;;5.07;3.80;;;;;;;23.67;55.68;99990.53;5036636;28;20079;-64
2023/05/24 06:27:23;;;;;;;5.40;3.70;;;;;;;23.68;55.65;99990.34;5073170;28;20040;-65
2023/05/24 06:30:09;;;;;;;5.57;3.75;;;;;;;23.69;55.65;100002.94;5068037;28;20481;-65
2023/05/24 06:32:38;;;;;;;5.60;3.90;;;;;;;23.69;55.92;99996.63;5069900;28;20040;-65
2023/05/24 06:35:07;;;;;;;4.95;3.90;;;;;;;23.69;55.72;100002.09;5069924;28;20135;-64
2023/05/24 06:37:37;;;;;;;6.13;4.10;;;;;;;23.69;55.76;100002.94;5070126;28;20049;-64
2023/05/24 06:40:08;;;;;;;5.25;3.75;;;;;;;23.70;55.86;99996.44;5070914;28;20102;-65
2023/05/24 06:43:01;;;;;;;5.75;4.30;;;;;;;23.70;55.92;100001.91;5068915;28;20045;-64
2023/05/24 06:46:23;;;;;;;5.32;4.00;;;;;;;23.72;55.91;100007.16;5063269;28;20045;-63
2023/05/24 06:49:48;;;;;;;5.43;4.13;;;;;;;23.73;55.98;100003.41;5071567;28;20080;-67
2023/05/24 06:52:27;;;;;;;5.07;4.10;;;;;;;23.73;55.98;100006.13;5066788;28;20048;-65
2023/05/24 06:54:56;;;;;;;5.20;3.90;;;;;;;23.73;55.99;100008.84;5070738;28;20048;-65
2023/05/24 06:57:24;;;;;;;5.07;3.80;;;;;;;23.75;56.07;100011.41;5068790;28;20056;-65
2023/05/24 06:59:52;;;;;;;5.18;3.92;;;;;;;23.73;56.05;100014.28;5070784;28;20500;-66
2023/05/24 07:02:25;;;;;;;5.38;4.00;;;;;;;23.73;56.26;100019.72;5070814;28;20130;-65
2023/05/24 07:04:55;;;;;;;6.07;3.67;;;;;;;23.73;56.16;100014.28;5070831;28;20036;-65
2023/05/24 07:07:24;;;;;;;5.28;4.10;;;;;;;23.74;56.21;100015.13;5070457;28;20087;-66
2023/05/24 07:09:52;;;;;;;5.70;4.20;;;;;;;23.73;56.20;100008.84;5069365;28;20091;-65
2023/05/24 07:12:20;;;;;;;5.32;3.85;;;;;;;23.74;56.24;100021.47;5069340;28;20099;-65
2023/05/24 07:14:49;;;;;;;6.10;3.88;;;;;;;23.74;56.02;100021.47;5070593;28;20052;-66
2023/05/24 07:17:17;;;;;;;5.80;4.18;;;;;;;23.75;56.29;100025.03;5071325;28;20098;-65
2023/05/24 07:19:45;;;;;;;5.80;3.88;;;;;;;23.75;56.38;100028.59;5074475;28;20405;-66
2023/05/24 07:22:14;;;;;;;4.75;3.80;;;;;;;23.76;56.37;100027.56;5074255;28;20087;-65
2023/05/24 07:24:43;;;;;;;4.97;4.07;;;;;;;23.76;56.34;100026.72;5074413;28;20048;-66
2023/05/24 07:27:11;;;;;;;7.15;4.15;;;;;;;23.76;56.20;100033.00;5074471;28;20044;-66
2023/05/24 07:29:39;;;;;;;5.32;4.07;;;;;;;23.77;56.51;100040.16;5074298;28;20045;-65
2023/05/24 07:32:08;;;;;;;6.10;4.78;;;;;;;23.76;56.56;100035.72;5074367;28;20048;-65
2023/05/24 07:34:38;;;;;;;6.53;4.80;;;;;;;23.76;56.56;100046.63;5073932;28;20048;-66
2023/05/24 07:37:06;;;;;;;5.40;4.18;;;;;;;23.77;56.50;100045.59;5074296;28;20044;-65
2023/05/24 07:39:36;;;;;;;5.82;4.60;;;;;;;23.77;56.56;100048.31;5074021;28;20067;-65
2023/05/24 07:42:05;;;;;;;7.43;4.65;;;;;;;23.78;56.48;100044.56;5074085;28;20052;-65
2023/05/24 07:44:33;;;;;;;5.97;4.65;;;;;;;23.78;56.63;100038.25;5074461;28;20040;-65
2023/05/24 07:47:02;;;;;;;7.60;4.40;;;;;;;23.78;56.63;100044.56;5073988;28;20048;-65
2023/05/24 07:49:30;;;;;;;5.05;4.20;;;;;;;23.79;56.66;100040.81;5073589;28;20044;-64
2023/05/24 07:51:59;;;;;;;5.80;4.40;;;;;;;23.79;56.76;100043.53;5073973;28;20135;-65
2023/05/24 07:54:27;;;;;;;7.05;4.53;;;;;;;23.80;56.89;100045.22;5073575;28;20497;-65
2023/05/24 07:56:57;;;;;;;5.10;4.38;;;;;;;23.80;56.81;100050.66;5073680;28;20209;-65
2023/05/24 07:59:25;;;;;;;6.28;4.38;;;;;;;23.82;56.96;100050.47;5073675;28;20051;-64
2023/05/24 08:01:54;;;;;;;6.25;4.45;;;;;;;23.81;56.94;100049.63;5073435;28;20040;-65
2023/05/24 08:04:22;;;;;;;5.80;4.50;;;;;;;23.81;56.92;100055.06;5073854;28;20044;-65
2023/05/24 08:06:50;;;;;;;5.40;4.38;;;;;;;23.84;56.93;100052.00;5073811;28;20044;-65
2023/05/24 08:09:19;;;;;;;6.82;5.10;;;;;;;23.84;57.00;100049.28;5073383;28;20052;-65
2023/05/24 08:11:47;;;;;;;5.97;4.45;;;;;;;23.84;56.96;100070.22;5073248;28;20059;-65
2023/05/24 08:14:19;;;;;;;5.82;4.88;;;;;;;23.86;56.98;100065.44;5073389;28;20048;-66
2023/05/24 08:16:47;;;;;;;5.80;4.78;;;;;;;23.86;56.96;100068.16;5073724;28;20063;-67
2023/05/24 08:19:16;;;;;;;6.72;4.63;;;;;;;23.86;57.01;100058.13;5073481;28;20135;-66
2023/05/24 08:21:44;;;;;;;6.30;4.60;;;;;;;23.88;57.03;100068.81;5073523;28;20044;-66
2023/05/24 08:24:12;;;;;;;5.40;4.43;;;;;;;23.88;57.02;100066.94;5073233;28;20404;-66
2023/05/24 08:26:42;;;;;;;7.13;4.57;;;;;;;23.90;57.04;100064.03;5073072;28;20047;-66
2023/05/24 08:29:10;;;;;;;5.57;4.57;;;;;;;23.89;57.31;100071.34;5072264;28;20054;-66
2023/05/24 08:31:40;;;;;;;6.35;4.70;;;;;;;23.91;57.27;100072.00;5073068;28;20110;-66
2023/05/24 08:34:09;;;;;;;5.90;4.63;;;;;;;23.92;57.01;100068.25;5073183;28;20072;-66
2023/05/24 08:36:37;;;;;;;6.05;4.80;;;;;;;23.93;57.08;100083.59;5073182;28;20131;-66
2023/05/24 08:39:06;;;;;;;6.30;4.63;;;;;;;23.93;57.14;100075.44;5072978;28;20054;-66
2023/05/24 08:41:36;;;;;;;5.57;4.53;;;;;;;23.94;57.01;100085.28;5072718;28;20059;-65
2023/05/24 08:44:06;;;;;;;6.43;5.10;;;;;;;23.95;57.03;100076.09;5073091;28;20129;-65
2023/05/24 08:46:34;;;;;;;5.90;4.85;;;;;;;23.96;57.20;100085.09;5072896;28;20051;-65
2023/05/24 08:49:04;;;;;;;6.68;4.68;;;;;;;23.96;57.07;100085.94;5072926;28;20059;-67
2023/05/24 08:51:33;;;;;;;5.57;4.85;;;;;;;23.97;57.17;100093.09;5072675;28;20398;-65
2023/05/24 08:54:02;;;;;;;6.55;4.43;;;;;;;23.99;57.18;100096.47;5072635;28;20485;-65
2023/05/24 08:56:30;;;;;;;6.00;4.60;;;;;;;23.99;57.22;100098.34;5072736;28;20398;-66
2023/05/24 08:58:59;;;;;;;6.97;4.93;;;;;;;23.99;57.20;100101.91;5072739;28;20041;-65
2023/05/24 09:01:28;;;;;;;6.57;4.53;;;;;;;24.01;57.25;100098.16;5072639;28;20489;-65
2023/05/24 09:04:00;;;;;;;5.80;4.50;;;;;;;24.01;57.20;100104.44;5072538;28;20079;-66
2023/05/24 09:06:30;;;;;;;5.75;4.55;;;;;;;24.03;57.20;100107.00;5072617;28;20080;-67
2023/05/24 09:09:00;;;;;;;6.07;4.30;;;;;;;24.03;57.23;100104.25;5072764;28;20041;-66
2023/05/24 09:11:29;;;;;;;6.35;4.60;;;;;;;24.04;57.62;100100.53;5072401;28;20049;-66
2023/05/24 09:13:57;;;;;;;5.85;4.78;;;;;;;24.05;57.28;100104.97;5072573;28;20044;-66
2023/05/24 09:16:25;;;;;;;5.45;4.47;;;;;;;24.05;57.34;100110.41;5072250;28;20052;-66
2023/05/24 09:18:53;;;;;;;5.70;4.45;;;;;;;24.06;57.10;100098.47;5072324;28;20072;-66
2023/05/24 09:21:22;;;;;;;5.40;4.25;;;;;;;24.07;57.18;100100.16;5071958;28;20498;-66
2023/05/24 09:23:52;;;;;;;6.00;4.22;;;;;;;24.07;57.40;100101.00;5072019;28;20513;-66
2023/05/24 09:26:20;;;;;;;4.97;4.00;;;;;;;24.08;57.21;100090.97;5071988;28;20053;-66
2023/05/24 09:28:50;;;;;;;6.35;4.80;;;;;;;24.09;57.14;100093.50;5071935;28;20056;-66
2023/05/24 09:31:18;;;;;;;5.60;4.20;;;;;;;24.10;57.28;100091.63;5071958;28;20040;-66
2023/05/24 09:33:48;;;;;;;4.80;3.95;;;;;;;24.10;57.13;100080.72;5071886;28;20056;-66
2023/05/24 09:36:17;;;;;;;5.35;3.92;;;;;;;24.11;57.37;100093.31;5071952;28;20053;-66
2023/05/24 09:38:45;;;;;;;5.72;3.97;;;;;;;24.12;57.41;100097.72;5071986;28;20059;-66
2023/05/24 09:41:14;;;;;;;5.38;4.18;;;;;;;24.13;57.35;100088.53;5070886;28;20127;-66
2023/05/24 09:43:49;;;;;;;5.45;4.10;;;;;;;24.14;57.46;100087.50;5071784;28;20102;-66
2023/05/24 09:46:18;;;;;;;6.10;4.22;;;;;;;24.15;57.40;100086.47;5071522;28;20049;-66
2023/05/24 09:48:57;;;;;;;5.72;4.00;;;;;;;24.16;57.38;100088.16;5071634;28;20052;-65
2023/05/24 09:51:26;;;;;;;5.65;4.00;;;;;;;24.16;57.38;100089.00;5071541;28;20553;-65
2023/05/24 09:53:57;;;;;;;5.20;3.90;;;;;;;24.18;57.69;100089.66;5071826;28;20049;-65
2023/05/24 09:56:27;;;;;;;6.05;4.10;;;;;;;24.20;57.54;100103.09;5071584;28;20045;-65
2023/05/24 09:58:55;;;;;;;5.43;3.97;;;;;;;24.20;57.48;100097.66;5071385;28;20040;-65
2023/05/24 10:01:25;;;;;;;4.95;3.92;;;;;;;24.22;57.44;100103.75;5071706;28;20040;-65
2023/05/24 10:03:54;;;;;;;4.68;3.85;;;;;;;24.23;57.61;100102.75;5071316;28;20136;-65
2023/05/24 10:06:24;;;;;;;5.00;4.00;;;;;;;24.24;57.54;100097.13;5071437;28;20057;-65
2023/05/24 10:08:53;;;;;;;5.32;4.07;;;;;;;24.26;57.63;100099.66;5071417;28;20473;-65
2023/05/24 10:11:21;;;;;;;5.00;3.80;;;;;;;24.26;57.64;100108.69;5071335;28;20440;-65
2023/05/24 10:13:51;;;;;;;5.03;3.90;;;;;;;24.28;57.60;100105.75;5071522;28;20211;-65
2023/05/24 10:16:19;;;;;;;4.50;3.72;;;;;;;24.30;57.84;100106.41;5071533;28;20064;-66
2023/05/24 10:18:47;;;;;;;4.53;3.47;;;;;;;24.31;57.48;100099.09;5071306;28;20113;-66
2023/05/24 10:21:17;;;;;;;4.85;4.00;;;;;;;24.32;57.73;100093.50;5071257;28;20102;-66
2023/05/24 10:23:52;;;;;;;5.25;3.70;;;;;;;24.34;57.43;100091.44;5071249;28;20044;-67
2023/05/24 10:26:24;;;;;;;4.22;3.45;;;;;;;24.35;57.63;100090.41;5071558;28;20471;-65
2023/05/24 10:29:00;;;;;;;4.97;3.78;;;;;;;24.38;57.46;100092.75;5071348;28;20056;-66
2023/05/24 10:31:32;;;;;;;4.32;3.40;;;;;;;24.39;57.69;100086.25;5071274;28;20044;-66
2023/05/24 10:34:03;;;;;;;4.95;3.80;;;;;;;24.42;57.42;100094.09;5071179;28;20131;-66
2023/05/24 10:36:39;;;;;;;5.70;4.10;;;;;;;24.43;57.69;100095.78;5070857;28;20524;-66
2023/05/24 10:39:11;;;;;;;5.00;3.78;;;;;;;24.46;57.52;100097.28;5071233;28;20338;-66
2023/05/24 10:41:40;;;;;;;4.07;3.42;;;;;;;24.47;57.44;100094.38;5071393;28;20049;-66
2023/05/24 10:44:13;;;;;;;4.63;3.80;;;;;;;24.49;57.54;100097.75;5070870;28;20536;-66
2023/05/24 10:47:10;;;;;;;5.00;3.50;;;;;;;24.51;57.45;100082.06;5070851;28;20136;-66
2023/05/24 10:49:47;;;;;;;6.30;3.90;;;;;;;24.53;57.43;100077.28;5071094;28;20060;-66
2023/05/24 10:52:15;;;;;;;4.82;3.35;;;;;;;24.57;57.61;100076.88;5071615;28;20469;-67
2023/05/24 10:55:02;;;;;;;5.43;3.88;;;;;;;24.60;57.72;100081.97;5074931;28;20049;-66
2023/05/24 10:57:32;;;;;;;4.80;3.67;;;;;;;24.61;57.55;100087.25;5074365;28;20489;-66
2023/05/24 11:00:27;;;;;;;4.30;3.45;;;;;;;24.64;57.58;100086.88;5073871;28;20078;-66
2023/05/24 11:03:03;;;;;;;4.60;3.50;;;;;;;24.69;57.82;100083.56;5074892;28;20059;-66
2023/05/24 11:05:34;;;;;;;4.40;3.33;;;;;;;24.71;57.90;100078.78;5074725;28;20049;-66
2023/05/24 11:08:04;;;;;;;4.32;3.55;;;;;;;24.73;57.80;100076.72;5074689;28;20066;-67
2023/05/24 11:10:33;;;;;;;4.82;3.65;;;;;;;24.76;57.78;100073.59;5074705;28;20052;-66
2023/05/24 11:13:02;;;;;;;4.25;3.50;;;;;;;24.78;57.62;100079.72;5074540;28;20056;-66
2023/05/24 11:15:32;;;;;;;4.30;3.50;;;;;;;24.81;57.61;100074.75;5074587;28;20128;-65
2023/05/24 11:18:16;;;;;;;4.18;3.35;;;;;;;24.85;57.89;100072.47;5074279;28;20127;-66
2023/05/24 11:20:45;;;;;;;4.47;3.60;;;;;;;24.89;57.60;100068.31;5074210;28;20048;-65
2023/05/24 11:23:15;;;;;;;4.38;3.22;;;;;;;24.92;57.57;100065.22;5074288;28;20577;-66
2023/05/24 11:25:45;;;;;;;5.10;3.85;;;;;;;24.95;57.60;100064.84;5074521;28;20056;-66
2023/05/24 11:28:13;;;;;;;4.53;3.67;;;;;;;24.98;57.78;100055.41;5074131;28;20538;-66
2023/05/24 11:30:44;;;;;;;4.60;3.40;;;;;;;25.02;57.48;100052.16;5074314;28;20083;-65
2023/05/24 11:33:17;;;;;;;4.68;3.67;;;;;;;25.05;57.62;100054.50;5074000;28;20394;-65
2023/05/24 11:35:46;;;;;;;4.80;3.30;;;;;;;25.09;57.59;100049.50;5074209;28;20542;-65
2023/05/24 11:38:15;;;;;;;4.80;3.58;;;;;;;25.13;57.77;100045.38;5074151;28;20079;-65
2023/05/24 11:40:45;;;;;;;4.65;3.53;;;;;;;25.18;57.56;100044.78;5074078;28;20045;-65
2023/05/24 11:43:14;;;;;;;4.72;3.40;;;;;;;25.21;57.76;100039.81;5073909;28;20048;-67
2023/05/24 11:45:47;;;;;;;4.90;3.83;;;;;;;25.25;57.30;100048.44;5074050;28;20102;-66
2023/05/24 11:48:16;;;;;;;4.57;3.67;;;;;;;25.28;57.43;100042.59;5074186;28;20471;-66
2023/05/24 11:50:47;;;;;;;4.32;3.30;;;;;;;25.33;57.62;100034.69;5073998;28;20516;-66
2023/05/24 11:53:19;;;;;;;4.82;3.50;;;;;;;25.37;57.39;100041.44;5073944;28;20493;-65
2023/05/24 11:55:47;;;;;;;5.20;3.70;;;;;;;25.42;57.30;100049.06;5073664;28;20482;-66
2023/05/24 11:58:22;;;;;;;4.40;3.28;;;;;;;25.45;57.20;100043.22;5074022;28;20079;-66